sensor_id;sensor_type;location;lat;lon;timestamp;temperature;humidity
6724;DHT22;3399;52.530;13.304;2022-09-02T00:00:49;14.50;99.90
6724;DHT22;3399;52.530;13.304;2022-09-02T00:03:16;14.50;99.90
6724;DHT22;3399;52.530;13.304;2022-09-02T00:05:41;14.50;99.90
6724;DHT22;3399;52.530;13.304;2022-09-02T00:08:08;14.50;99.90
6724;DHT22;3399;52.530;13.304;2022-09-02T00:10:37;14.40;99.90
6724;DHT22;3399;52.530;13.304;2022-09-02T00:13:04;14.40;99.90
6724;DHT22;3399;52.530;13.304;2022-09-02T00:15:30;14.40;99.90
6724;DHT22;3399;52.530;13.304;2022-09-02T00:17:57;14.40;99.90
6724;DHT22;3399;52.530;13.304;2022-09-02T00:20:22;14.40;99.90
6724;DHT22;3399;52.530;13.304;2022-09-02T00:22:48;14.40;99.90
6724;DHT22;3399;52.530;13.304;2022-09-02T00:25:13;14.40;99.90
6724;DHT22;3399;52.530;13.304;2022-09-02T00:27:39;14.40;99.90
6724;DHT22;3399;52.530;13.304;2022-09-02T00:30:05;14.40;99.90
6724;DHT22;3399;52.530;13.304;2022-09-02T00:32:31;14.40;99.90
6724;DHT22;3399;52.530;13.304;2022-09-02T00:34:57;14.40;99.90
6724;DHT22;3399;52.530;13.304;2022-09-02T00:37:24;14.30;99.90
6724;DHT22;3399;52.530;13.304;2022-09-02T00:39:51;14.20;99.90
6724;DHT22;3399;52.530;13.304;2022-09-02T00:42:20;14.20;99.90
6724;DHT22;3399;52.530;13.304;2022-09-02T00:44:46;14.20;99.90
6724;DHT22;3399;52.530;13.304;2022-09-02T00:47:12;14.20;99.90
6724;DHT22;3399;52.530;13.304;2022-09-02T00:49:41;14.30;99.90
6724;DHT22;3399;52.530;13.304;2022-09-02T00:52:18;14.40;99.90
6724;DHT22;3399;52.530;13.304;2022-09-02T00:54:52;14.40;99.90
6724;DHT22;3399;52.530;13.304;2022-09-02T00:57:23;14.40;99.90
6724;DHT22;3399;52.530;13.304;2022-09-02T01:00:10;14.40;99.90
6724;DHT22;3399;52.530;13.304;2022-09-02T01:02:39;14.50;99.90
6724;DHT22;3399;52.530;13.304;2022-09-02T01:05:08;14.50;99.90
6724;DHT22;3399;52.530;13.304;2022-09-02T01:07:35;14.60;99.90
6724;DHT22;3399;52.530;13.304;2022-09-02T01:10:07;14.60;99.90
6724;DHT22;3399;52.530;13.304;2022-09-02T01:12:33;14.60;99.90
6724;DHT22;3399;52.530;13.304;2022-09-02T01:15:00;14.60;99.90
6724;DHT22;3399;52.530;13.304;2022-09-02T01:17:27;14.60;99.90
6724;DHT22;3399;52.530;13.304;2022-09-02T01:19:56;14.60;99.90
6724;DHT22;3399;52.530;13.304;2022-09-02T01:22:27;14.70;99.90
6724;DHT22;3399;52.530;13.304;2022-09-02T01:24:56;14.70;99.90
6724;DHT22;3399;52.530;13.304;2022-09-02T01:27:23;14.70;99.90
6724;DHT22;3399;52.530;13.304;2022-09-02T01:29:57;14.70;99.90
6724;DHT22;3399;52.530;13.304;2022-09-02T01:32:23;14.70;99.90
6724;DHT22;3399;52.530;13.304;2022-09-02T01:34:49;14.70;99.90
6724;DHT22;3399;52.530;13.304;2022-09-02T01:37:16;14.70;99.90
6724;DHT22;3399;52.530;13.304;2022-09-02T01:39:42;14.70;99.90
6724;DHT22;3399;52.530;13.304;2022-09-02T01:42:07;14.70;99.90
6724;DHT22;3399;52.530;13.304;2022-09-02T01:44:34;14.70;99.90
6724;DHT22;3399;52.530;13.304;2022-09-02T01:47:03;14.70;99.90
6724;DHT22;3399;52.530;13.304;2022-09-02T01:49:29;14.70;99.90
6724;DHT22;3399;52.530;13.304;2022-09-02T01:51:54;14.60;99.90
6724;DHT22;3399;52.530;13.304;2022-09-02T01:54:20;14.50;99.90
6724;DHT22;3399;52.530;13.304;2022-09-02T01:56:46;14.50;99.90
6724;DHT22;3399;52.530;13.304;2022-09-02T01:59:11;14.40;99.90
6724;DHT22;3399;52.530;13.304;2022-09-02T02:01:42;14.40;99.90
6724;DHT22;3399;52.530;13.304;2022-09-02T02:04:08;14.40;99.90
6724;DHT22;3399;52.530;13.304;2022-09-02T02:06:33;14.40;99.90
6724;DHT22;3399;52.530;13.304;2022-09-02T02:08:59;14.40;99.90
6724;DHT22;3399;52.530;13.304;2022-09-02T02:11:24;14.40;99.90
6724;DHT22;3399;52.530;13.304;2022-09-02T02:13:50;14.40;99.90
6724;DHT22;3399;52.530;13.304;2022-09-02T02:16:16;14.40;99.90
6724;DHT22;3399;52.530;13.304;2022-09-02T02:18:41;14.40;99.90
6724;DHT22;3399;52.530;13.304;2022-09-02T02:21:07;14.40;99.90
6724;DHT22;3399;52.530;13.304;2022-09-02T02:23:33;14.40;99.90
6724;DHT22;3399;52.530;13.304;2022-09-02T02:25:58;14.40;99.90
6724;DHT22;3399;52.530;13.304;2022-09-02T02:28:24;14.30;99.90
6724;DHT22;3399;52.530;13.304;2022-09-02T02:30:49;14.30;99.90
6724;DHT22;3399;52.530;13.304;2022-09-02T02:33:15;14.20;99.90
6724;DHT22;3399;52.530;13.304;2022-09-02T02:35:41;14.10;99.90
6724;DHT22;3399;52.530;13.304;2022-09-02T02:38:06;14.10;99.90
6724;DHT22;3399;52.530;13.304;2022-09-02T02:40:33;14.10;99.90
6724;DHT22;3399;52.530;13.304;2022-09-02T02:42:58;14.10;99.90
6724;DHT22;3399;52.530;13.304;2022-09-02T02:45:25;14.10;99.90
6724;DHT22;3399;52.530;13.304;2022-09-02T02:47:50;14.00;99.90
6724;DHT22;3399;52.530;13.304;2022-09-02T02:50:19;14.00;99.90
6724;DHT22;3399;52.530;13.304;2022-09-02T02:52:45;13.90;99.90
6724;DHT22;3399;52.530;13.304;2022-09-02T02:55:12;13.80;99.90
6724;DHT22;3399;52.530;13.304;2022-09-02T02:57:38;13.80;99.90
6724;DHT22;3399;52.530;13.304;2022-09-02T03:00:11;13.80;99.90
6724;DHT22;3399;52.530;13.304;2022-09-02T03:02:37;13.70;99.90
6724;DHT22;3399;52.530;13.304;2022-09-02T03:05:05;13.60;99.90
6724;DHT22;3399;52.530;13.304;2022-09-02T03:07:31;13.60;99.90
6724;DHT22;3399;52.530;13.304;2022-09-02T03:09:57;13.50;99.90
6724;DHT22;3399;52.530;13.304;2022-09-02T03:12:23;13.50;99.90
6724;DHT22;3399;52.530;13.304;2022-09-02T03:14:49;13.50;99.90
6724;DHT22;3399;52.530;13.304;2022-09-02T03:17:15;13.50;99.90
6724;DHT22;3399;52.530;13.304;2022-09-02T03:19:40;13.50;99.90
6724;DHT22;3399;52.530;13.304;2022-09-02T03:22:06;13.50;99.90
6724;DHT22;3399;52.530;13.304;2022-09-02T03:24:31;13.40;99.90
6724;DHT22;3399;52.530;13.304;2022-09-02T03:26:57;13.30;99.90
6724;DHT22;3399;52.530;13.304;2022-09-02T03:29:22;13.30;99.90
6724;DHT22;3399;52.530;13.304;2022-09-02T03:31:48;13.20;99.90
6724;DHT22;3399;52.530;13.304;2022-09-02T03:34:13;13.20;99.90
6724;DHT22;3399;52.530;13.304;2022-09-02T03:36:40;13.20;99.90
6724;DHT22;3399;52.530;13.304;2022-09-02T03:39:09;13.10;99.90
6724;DHT22;3399;52.530;13.304;2022-09-02T03:41:35;13.10;99.90
6724;DHT22;3399;52.530;13.304;2022-09-02T03:44:01;13.00;99.90
6724;DHT22;3399;52.530;13.304;2022-09-02T03:46:28;12.90;99.90
6724;DHT22;3399;52.530;13.304;2022-09-02T03:48:53;13.00;99.90
6724;DHT22;3399;52.530;13.304;2022-09-02T03:51:20;13.00;99.90
6724;DHT22;3399;52.530;13.304;2022-09-02T03:53:45;12.90;99.90
6724;DHT22;3399;52.530;13.304;2022-09-02T03:56:13;12.90;99.90
6724;DHT22;3399;52.530;13.304;2022-09-02T03:58:40;12.90;99.90
6724;DHT22;3399;52.530;13.304;2022-09-02T04:01:06;12.80;99.90
6724;DHT22;3399;52.530;13.304;2022-09-02T04:03:31;12.80;99.90
6724;DHT22;3399;52.530;13.304;2022-09-02T04:05:57;12.80;99.90
6724;DHT22;3399;52.530;13.304;2022-09-02T04:08:23;12.80;99.90
6724;DHT22;3399;52.530;13.304;2022-09-02T04:10:49;12.80;99.90
6724;DHT22;3399;52.530;13.304;2022-09-02T04:13:15;12.90;99.90
6724;DHT22;3399;52.530;13.304;2022-09-02T04:15:42;12.90;99.90
6724;DHT22;3399;52.530;13.304;2022-09-02T04:18:10;12.80;99.90
6724;DHT22;3399;52.530;13.304;2022-09-02T04:20:37;12.80;99.90
6724;DHT22;3399;52.530;13.304;2022-09-02T04:23:04;12.80;99.90
6724;DHT22;3399;52.530;13.304;2022-09-02T04:25:29;12.80;99.90
6724;DHT22;3399;52.530;13.304;2022-09-02T04:27:56;12.80;99.90
6724;DHT22;3399;52.530;13.304;2022-09-02T04:30:21;12.90;99.90
6724;DHT22;3399;52.530;13.304;2022-09-02T04:32:50;13.00;99.90
6724;DHT22;3399;52.530;13.304;2022-09-02T04:35:16;13.00;99.90
6724;DHT22;3399;52.530;13.304;2022-09-02T04:37:41;13.10;99.90
6724;DHT22;3399;52.530;13.304;2022-09-02T04:40:07;13.10;99.90
6724;DHT22;3399;52.530;13.304;2022-09-02T04:42:33;13.10;99.90
6724;DHT22;3399;52.530;13.304;2022-09-02T04:44:59;13.20;99.90
6724;DHT22;3399;52.530;13.304;2022-09-02T04:47:24;13.30;99.90
6724;DHT22;3399;52.530;13.304;2022-09-02T04:49:52;13.30;99.90
6724;DHT22;3399;52.530;13.304;2022-09-02T04:52:18;13.40;99.90
6724;DHT22;3399;52.530;13.304;2022-09-02T04:54:45;13.40;99.90
6724;DHT22;3399;52.530;13.304;2022-09-02T04:57:10;13.50;99.90
6724;DHT22;3399;52.530;13.304;2022-09-02T04:59:36;13.50;99.90
6724;DHT22;3399;52.530;13.304;2022-09-02T05:02:02;13.50;99.90
6724;DHT22;3399;52.530;13.304;2022-09-02T05:04:28;13.60;99.90
6724;DHT22;3399;52.530;13.304;2022-09-02T05:06:56;13.50;99.90
6724;DHT22;3399;52.530;13.304;2022-09-02T05:09:22;13.50;99.90
6724;DHT22;3399;52.530;13.304;2022-09-02T05:11:48;13.60;99.90
6724;DHT22;3399;52.530;13.304;2022-09-02T05:14:13;13.60;99.90
6724;DHT22;3399;52.530;13.304;2022-09-02T05:16:40;13.50;99.90
6724;DHT22;3399;52.530;13.304;2022-09-02T05:19:08;13.60;99.90
6724;DHT22;3399;52.530;13.304;2022-09-02T05:21:43;13.50;99.90
6724;DHT22;3399;52.530;13.304;2022-09-02T05:24:09;13.60;99.90
6724;DHT22;3399;52.530;13.304;2022-09-02T05:26:34;13.60;99.90
6724;DHT22;3399;52.530;13.304;2022-09-02T05:29:01;13.70;99.90
6724;DHT22;3399;52.530;13.304;2022-09-02T05:31:27;13.80;99.90
6724;DHT22;3399;52.530;13.304;2022-09-02T05:33:53;13.80;99.90
6724;DHT22;3399;52.530;13.304;2022-09-02T05:36:20;13.90;99.90
6724;DHT22;3399;52.530;13.304;2022-09-02T05:38:47;14.00;99.90
6724;DHT22;3399;52.530;13.304;2022-09-02T05:41:16;14.00;99.90
6724;DHT22;3399;52.530;13.304;2022-09-02T05:43:44;14.10;99.90
6724;DHT22;3399;52.530;13.304;2022-09-02T05:46:12;14.20;99.90
6724;DHT22;3399;52.530;13.304;2022-09-02T05:48:38;14.30;99.90
6724;DHT22;3399;52.530;13.304;2022-09-02T05:51:23;14.50;99.90
6724;DHT22;3399;52.530;13.304;2022-09-02T05:53:53;14.70;99.90
6724;DHT22;3399;52.530;13.304;2022-09-02T05:56:20;14.80;99.90
6724;DHT22;3399;52.530;13.304;2022-09-02T05:58:45;14.90;99.90
6724;DHT22;3399;52.530;13.304;2022-09-02T06:01:13;15.00;99.90
6724;DHT22;3399;52.530;13.304;2022-09-02T06:03:39;15.10;99.90
6724;DHT22;3399;52.530;13.304;2022-09-02T06:06:06;15.20;99.90
6724;DHT22;3399;52.530;13.304;2022-09-02T06:08:33;15.30;99.90
6724;DHT22;3399;52.530;13.304;2022-09-02T06:10:59;15.40;99.90
6724;DHT22;3399;52.530;13.304;2022-09-02T06:13:28;15.40;99.90
6724;DHT22;3399;52.530;13.304;2022-09-02T06:15:54;15.50;99.90
6724;DHT22;3399;52.530;13.304;2022-09-02T06:18:20;15.60;99.90
6724;DHT22;3399;52.530;13.304;2022-09-02T06:20:46;15.80;99.90
6724;DHT22;3399;52.530;13.304;2022-09-02T06:23:13;15.80;99.90
6724;DHT22;3399;52.530;13.304;2022-09-02T06:25:41;15.90;99.90
6724;DHT22;3399;52.530;13.304;2022-09-02T06:28:07;16.00;99.90
6724;DHT22;3399;52.530;13.304;2022-09-02T06:30:33;16.00;99.90
6724;DHT22;3399;52.530;13.304;2022-09-02T06:32:59;16.10;99.90
6724;DHT22;3399;52.530;13.304;2022-09-02T06:35:27;16.10;99.90
6724;DHT22;3399;52.530;13.304;2022-09-02T06:37:53;16.20;99.90
6724;DHT22;3399;52.530;13.304;2022-09-02T06:40:18;16.20;99.90
6724;DHT22;3399;52.530;13.304;2022-09-02T06:42:44;16.30;99.90
6724;DHT22;3399;52.530;13.304;2022-09-02T06:45:10;16.40;99.90
6724;DHT22;3399;52.530;13.304;2022-09-02T06:47:35;16.50;99.90
6724;DHT22;3399;52.530;13.304;2022-09-02T06:50:01;16.50;99.90
6724;DHT22;3399;52.530;13.304;2022-09-02T06:52:27;16.50;99.90
6724;DHT22;3399;52.530;13.304;2022-09-02T06:54:52;16.60;99.90
6724;DHT22;3399;52.530;13.304;2022-09-02T06:57:19;16.80;99.90
6724;DHT22;3399;52.530;13.304;2022-09-02T06:59:45;16.90;99.90
6724;DHT22;3399;52.530;13.304;2022-09-02T07:02:11;16.90;99.90
6724;DHT22;3399;52.530;13.304;2022-09-02T07:04:37;16.90;99.90
6724;DHT22;3399;52.530;13.304;2022-09-02T07:07:21;16.90;99.90
6724;DHT22;3399;52.530;13.304;2022-09-02T07:09:47;17.00;99.90
6724;DHT22;3399;52.530;13.304;2022-09-02T07:12:12;17.10;99.90
6724;DHT22;3399;52.530;13.304;2022-09-02T07:14:41;17.10;99.90
6724;DHT22;3399;52.530;13.304;2022-09-02T07:17:10;17.00;99.90
6724;DHT22;3399;52.530;13.304;2022-09-02T07:19:36;17.10;99.90
6724;DHT22;3399;52.530;13.304;2022-09-02T07:22:04;17.10;99.90
6724;DHT22;3399;52.530;13.304;2022-09-02T07:24:29;17.20;99.90
6724;DHT22;3399;52.530;13.304;2022-09-02T07:26:55;17.30;99.90
6724;DHT22;3399;52.530;13.304;2022-09-02T07:29:20;17.40;99.90
6724;DHT22;3399;52.530;13.304;2022-09-02T07:31:47;17.50;99.90
6724;DHT22;3399;52.530;13.304;2022-09-02T07:34:13;17.60;99.90
6724;DHT22;3399;52.530;13.304;2022-09-02T07:36:39;17.70;99.90
6724;DHT22;3399;52.530;13.304;2022-09-02T07:39:07;17.70;99.90
6724;DHT22;3399;52.530;13.304;2022-09-02T07:41:33;17.70;99.90
6724;DHT22;3399;52.530;13.304;2022-09-02T07:43:59;17.80;99.90
6724;DHT22;3399;52.530;13.304;2022-09-02T07:46:24;17.90;99.90
6724;DHT22;3399;52.530;13.304;2022-09-02T07:48:50;17.80;99.90
6724;DHT22;3399;52.530;13.304;2022-09-02T07:51:19;17.80;99.90
6724;DHT22;3399;52.530;13.304;2022-09-02T07:53:45;17.80;99.90
6724;DHT22;3399;52.530;13.304;2022-09-02T07:56:12;17.80;99.90
6724;DHT22;3399;52.530;13.304;2022-09-02T07:58:41;17.90;99.90
6724;DHT22;3399;52.530;13.304;2022-09-02T08:01:08;18.00;99.90
6724;DHT22;3399;52.530;13.304;2022-09-02T08:03:35;18.00;99.90
6724;DHT22;3399;52.530;13.304;2022-09-02T08:06:01;18.10;99.90
6724;DHT22;3399;52.530;13.304;2022-09-02T08:08:27;18.20;99.90
6724;DHT22;3399;52.530;13.304;2022-09-02T08:10:52;18.20;99.90
6724;DHT22;3399;52.530;13.304;2022-09-02T08:13:19;18.30;99.90
6724;DHT22;3399;52.530;13.304;2022-09-02T08:15:45;18.30;99.90
6724;DHT22;3399;52.530;13.304;2022-09-02T08:18:11;18.20;99.90
6724;DHT22;3399;52.530;13.304;2022-09-02T08:20:37;18.30;99.90
6724;DHT22;3399;52.530;13.304;2022-09-02T08:23:04;18.50;99.90
6724;DHT22;3399;52.530;13.304;2022-09-02T08:25:31;18.70;99.90
6724;DHT22;3399;52.530;13.304;2022-09-02T08:27:57;18.80;99.90
6724;DHT22;3399;52.530;13.304;2022-09-02T08:30:23;18.90;99.90
6724;DHT22;3399;52.530;13.304;2022-09-02T08:32:48;19.00;99.90
6724;DHT22;3399;52.530;13.304;2022-09-02T08:35:14;19.20;99.90
6724;DHT22;3399;52.530;13.304;2022-09-02T08:37:39;19.30;99.90
6724;DHT22;3399;52.530;13.304;2022-09-02T08:40:07;19.40;99.90
6724;DHT22;3399;52.530;13.304;2022-09-02T08:42:42;19.60;99.90
6724;DHT22;3399;52.530;13.304;2022-09-02T08:45:29;19.60;99.90
6724;DHT22;3399;52.530;13.304;2022-09-02T08:48:13;19.70;99.90
6724;DHT22;3399;52.530;13.304;2022-09-02T08:50:44;19.70;99.90
6724;DHT22;3399;52.530;13.304;2022-09-02T08:53:39;19.60;99.40
6724;DHT22;3399;52.530;13.304;2022-09-02T08:56:09;19.60;99.70
6724;DHT22;3399;52.530;13.304;2022-09-02T08:58:39;19.70;99.00
6724;DHT22;3399;52.530;13.304;2022-09-02T09:06:08;19.70;98.50
6724;DHT22;3399;52.530;13.304;2022-09-02T09:11:32;19.90;97.60
6724;DHT22;3399;52.530;13.304;2022-09-02T09:16:47;19.90;96.80
6724;DHT22;3399;52.530;13.304;2022-09-02T09:21:59;20.00;96.10
6724;DHT22;3399;52.530;13.304;2022-09-02T09:24:35;20.10;96.60
6724;DHT22;3399;52.530;13.304;2022-09-02T09:27:07;20.20;94.60
6724;DHT22;3399;52.530;13.304;2022-09-02T09:29:33;20.20;94.80
6724;DHT22;3399;52.530;13.304;2022-09-02T09:32:00;20.30;95.70
6724;DHT22;3399;52.530;13.304;2022-09-02T09:38:00;20.60;94.60
6724;DHT22;3399;52.530;13.304;2022-09-02T09:45:37;20.90;93.40
6724;DHT22;3399;52.530;13.304;2022-09-02T09:50:46;21.00;92.90
6724;DHT22;3399;52.530;13.304;2022-09-02T09:53:17;21.10;92.20
6724;DHT22;3399;52.530;13.304;2022-09-02T09:58:17;21.50;89.70
6724;DHT22;3399;52.530;13.304;2022-09-02T10:00:43;21.70;89.50
6724;DHT22;3399;52.530;13.304;2022-09-02T10:03:21;21.90;89.40
6724;DHT22;3399;52.530;13.304;2022-09-02T10:05:51;22.00;85.20
6724;DHT22;3399;52.530;13.304;2022-09-02T10:08:20;21.70;85.40
6724;DHT22;3399;52.530;13.304;2022-09-02T10:11:05;21.70;85.50
6724;DHT22;3399;52.530;13.304;2022-09-02T10:13:43;21.80;84.80
6724;DHT22;3399;52.530;13.304;2022-09-02T10:16:27;21.70;84.20
6724;DHT22;3399;52.530;13.304;2022-09-02T10:19:05;21.60;84.80
6724;DHT22;3399;52.530;13.304;2022-09-02T10:22:01;21.50;84.10
6724;DHT22;3399;52.530;13.304;2022-09-02T10:27:15;21.90;84.40
6724;DHT22;3399;52.530;13.304;2022-09-02T10:29:56;22.20;83.80
6724;DHT22;3399;52.530;13.304;2022-09-02T10:32:44;22.50;80.70
6724;DHT22;3399;52.530;13.304;2022-09-02T10:35:42;22.50;81.20
6724;DHT22;3399;52.530;13.304;2022-09-02T10:40:51;22.20;80.10
6724;DHT22;3399;52.530;13.304;2022-09-02T10:43:40;21.80;79.70
6724;DHT22;3399;52.530;13.304;2022-09-02T10:46:16;21.90;82.90
6724;DHT22;3399;52.530;13.304;2022-09-02T10:51:41;22.30;78.70
6724;DHT22;3399;52.530;13.304;2022-09-02T10:57:28;22.60;76.10
6724;DHT22;3399;52.530;13.304;2022-09-02T11:05:17;21.90;77.30
6724;DHT22;3399;52.530;13.304;2022-09-02T11:07:54;22.00;75.70
6724;DHT22;3399;52.530;13.304;2022-09-02T11:10:33;22.00;76.00
6724;DHT22;3399;52.530;13.304;2022-09-02T11:16:19;22.00;75.70
6724;DHT22;3399;52.530;13.304;2022-09-02T11:18:57;22.00;77.90
6724;DHT22;3399;52.530;13.304;2022-09-02T11:22:03;22.10;74.10
6724;DHT22;3399;52.530;13.304;2022-09-02T11:24:41;22.10;75.40
6724;DHT22;3399;52.530;13.304;2022-09-02T11:30:14;22.40;77.30
6724;DHT22;3399;52.530;13.304;2022-09-02T11:32:54;22.90;74.90
6724;DHT22;3399;52.530;13.304;2022-09-02T11:35:23;23.30;71.40
6724;DHT22;3399;52.530;13.304;2022-09-02T11:38:04;23.40;69.80
6724;DHT22;3399;52.530;13.304;2022-09-02T11:40:37;23.70;68.50
6724;DHT22;3399;52.530;13.304;2022-09-02T11:43:26;23.90;64.90
6724;DHT22;3399;52.530;13.304;2022-09-02T11:48:52;23.40;65.60
6724;DHT22;3399;52.530;13.304;2022-09-02T11:54:20;23.00;66.00
6724;DHT22;3399;52.530;13.304;2022-09-02T11:56:50;22.90;67.30
6724;DHT22;3399;52.530;13.304;2022-09-02T11:59:26;23.10;68.50
6724;DHT22;3399;52.530;13.304;2022-09-02T12:02:09;23.50;66.80
6724;DHT22;3399;52.530;13.304;2022-09-02T12:04:35;23.80;66.60
6724;DHT22;3399;52.530;13.304;2022-09-02T12:09:50;24.20;67.10
6724;DHT22;3399;52.530;13.304;2022-09-02T12:17:39;25.60;59.50
6724;DHT22;3399;52.530;13.304;2022-09-02T12:22:56;26.00;56.60
6724;DHT22;3399;52.530;13.304;2022-09-02T12:33:34;25.70;55.60
6724;DHT22;3399;52.530;13.304;2022-09-02T12:36:00;25.40;56.10
6724;DHT22;3399;52.530;13.304;2022-09-02T12:38:31;25.60;56.10
6724;DHT22;3399;52.530;13.304;2022-09-02T12:52:00;27.30;52.90
6724;DHT22;3399;52.530;13.304;2022-09-02T12:54:40;27.60;52.00
6724;DHT22;3399;52.530;13.304;2022-09-02T12:57:08;28.00;51.40
6724;DHT22;3399;52.530;13.304;2022-09-02T12:59:38;28.40;50.10
6724;DHT22;3399;52.530;13.304;2022-09-02T13:05:00;28.80;48.30
6724;DHT22;3399;52.530;13.304;2022-09-02T13:08:02;28.10;48.80
6724;DHT22;3399;52.530;13.304;2022-09-02T13:16:26;26.70;52.50
6724;DHT22;3399;52.530;13.304;2022-09-02T13:19:13;27.90;51.00
6724;DHT22;3399;52.530;13.304;2022-09-02T13:21:48;28.10;47.90
6724;DHT22;3399;52.530;13.304;2022-09-02T13:27:40;28.80;46.70
6724;DHT22;3399;52.530;13.304;2022-09-02T13:30:20;29.30;44.90
6724;DHT22;3399;52.530;13.304;2022-09-02T13:33:04;29.90;46.20
6724;DHT22;3399;52.530;13.304;2022-09-02T13:35:31;30.80;45.70
6724;DHT22;3399;52.530;13.304;2022-09-02T13:37:59;31.60;43.20
6724;DHT22;3399;52.530;13.304;2022-09-02T13:40:31;31.90;42.60
6724;DHT22;3399;52.530;13.304;2022-09-02T13:43:14;31.60;41.70
6724;DHT22;3399;52.530;13.304;2022-09-02T13:45:41;31.00;42.20
6724;DHT22;3399;52.530;13.304;2022-09-02T13:48:14;30.70;41.00
6724;DHT22;3399;52.530;13.304;2022-09-02T13:50:48;30.10;41.40
6724;DHT22;3399;52.530;13.304;2022-09-02T13:53:27;29.60;41.60
6724;DHT22;3399;52.530;13.304;2022-09-02T13:55:57;29.90;41.70
6724;DHT22;3399;52.530;13.304;2022-09-02T14:01:31;31.40;40.80
6724;DHT22;3399;52.530;13.304;2022-09-02T14:04:01;32.30;40.00
6724;DHT22;3399;52.530;13.304;2022-09-02T14:06:29;33.30;38.90
6724;DHT22;3399;52.530;13.304;2022-09-02T14:08:59;34.10;37.90
6724;DHT22;3399;52.530;13.304;2022-09-02T14:11:26;33.00;36.30
6724;DHT22;3399;52.530;13.304;2022-09-02T14:13:52;31.40;38.60
6724;DHT22;3399;52.530;13.304;2022-09-02T14:21:30;27.60;43.00
6724;DHT22;3399;52.530;13.304;2022-09-02T14:23:56;27.00;43.90
6724;DHT22;3399;52.530;13.304;2022-09-02T14:26:34;26.50;43.90
6724;DHT22;3399;52.530;13.304;2022-09-02T14:29:01;26.00;44.50
6724;DHT22;3399;52.530;13.304;2022-09-02T14:31:28;25.70;46.50
6724;DHT22;3399;52.530;13.304;2022-09-02T14:33:56;26.30;45.10
6724;DHT22;3399;52.530;13.304;2022-09-02T14:38:52;28.70;43.10
6724;DHT22;3399;52.530;13.304;2022-09-02T14:41:24;30.20;41.80
6724;DHT22;3399;52.530;13.304;2022-09-02T14:43:58;31.60;39.30
6724;DHT22;3399;52.530;13.304;2022-09-02T14:46:29;32.40;38.50
6724;DHT22;3399;52.530;13.304;2022-09-02T14:49:04;33.10;37.50
6724;DHT22;3399;52.530;13.304;2022-09-02T14:51:42;33.80;36.80
6724;DHT22;3399;52.530;13.304;2022-09-02T14:54:09;34.20;36.00
6724;DHT22;3399;52.530;13.304;2022-09-02T14:56:51;34.60;35.50
6724;DHT22;3399;52.530;13.304;2022-09-02T14:59:18;33.40;34.70
6724;DHT22;3399;52.530;13.304;2022-09-02T15:01:49;31.90;36.50
6724;DHT22;3399;52.530;13.304;2022-09-02T15:04:15;32.30;37.00
6724;DHT22;3399;52.530;13.304;2022-09-02T15:06:42;32.50;35.80
6724;DHT22;3399;52.530;13.304;2022-09-02T15:09:07;32.40;35.20
6724;DHT22;3399;52.530;13.304;2022-09-02T15:11:34;31.20;36.60
6724;DHT22;3399;52.530;13.304;2022-09-02T15:14:00;30.80;37.30
6724;DHT22;3399;52.530;13.304;2022-09-02T15:16:26;31.00;36.80
6724;DHT22;3399;52.530;13.304;2022-09-02T15:18:51;31.50;37.10
6724;DHT22;3399;52.530;13.304;2022-09-02T15:21:17;31.60;36.20
6724;DHT22;3399;52.530;13.304;2022-09-02T15:23:43;31.70;35.50
6724;DHT22;3399;52.530;13.304;2022-09-02T15:26:10;32.20;35.10
6724;DHT22;3399;52.530;13.304;2022-09-02T15:28:35;33.20;34.80
6724;DHT22;3399;52.530;13.304;2022-09-02T15:31:02;34.10;33.20
6724;DHT22;3399;52.530;13.304;2022-09-02T15:33:29;34.20;33.20
6724;DHT22;3399;52.530;13.304;2022-09-02T15:36:04;35.10;33.10
6724;DHT22;3399;52.530;13.304;2022-09-02T15:38:30;35.70;31.80
6724;DHT22;3399;52.530;13.304;2022-09-02T15:40:56;35.00;31.30
6724;DHT22;3399;52.530;13.304;2022-09-02T15:43:21;34.10;31.60
6724;DHT22;3399;52.530;13.304;2022-09-02T15:45:47;33.00;32.80
6724;DHT22;3399;52.530;13.304;2022-09-02T15:48:13;32.10;34.70
6724;DHT22;3399;52.530;13.304;2022-09-02T15:50:39;30.90;35.20
6724;DHT22;3399;52.530;13.304;2022-09-02T15:53:04;29.80;36.90
6724;DHT22;3399;52.530;13.304;2022-09-02T15:55:32;28.90;38.30
6724;DHT22;3399;52.530;13.304;2022-09-02T15:57:58;28.10;38.00
6724;DHT22;3399;52.530;13.304;2022-09-02T16:00:23;28.20;36.90
6724;DHT22;3399;52.530;13.304;2022-09-02T16:02:50;27.70;37.70
6724;DHT22;3399;52.530;13.304;2022-09-02T16:05:16;26.90;39.20
6724;DHT22;3399;52.530;13.304;2022-09-02T16:07:42;26.00;39.80
6724;DHT22;3399;52.530;13.304;2022-09-02T16:10:08;25.40;41.40
6724;DHT22;3399;52.530;13.304;2022-09-02T16:12:33;24.90;42.00
6724;DHT22;3399;52.530;13.304;2022-09-02T16:14:59;24.60;42.40
6724;DHT22;3399;52.530;13.304;2022-09-02T16:17:24;24.70;42.70
6724;DHT22;3399;52.530;13.304;2022-09-02T16:19:50;25.70;41.70
6724;DHT22;3399;52.530;13.304;2022-09-02T16:22:15;26.60;40.20
6724;DHT22;3399;52.530;13.304;2022-09-02T16:24:41;26.60;39.80
6724;DHT22;3399;52.530;13.304;2022-09-02T16:27:06;26.10;40.00
6724;DHT22;3399;52.530;13.304;2022-09-02T16:29:31;25.50;40.60
6724;DHT22;3399;52.530;13.304;2022-09-02T16:31:57;25.00;41.90
6724;DHT22;3399;52.530;13.304;2022-09-02T16:34:23;24.40;42.30
6724;DHT22;3399;52.530;13.304;2022-09-02T16:36:49;24.20;43.40
6724;DHT22;3399;52.530;13.304;2022-09-02T16:39:18;24.10;44.00
6724;DHT22;3399;52.530;13.304;2022-09-02T16:41:51;24.00;43.60
6724;DHT22;3399;52.530;13.304;2022-09-02T16:44:23;23.80;44.10
6724;DHT22;3399;52.530;13.304;2022-09-02T16:46:50;23.60;44.80
6724;DHT22;3399;52.530;13.304;2022-09-02T16:49:17;23.50;44.20
6724;DHT22;3399;52.530;13.304;2022-09-02T16:51:48;23.30;44.40
6724;DHT22;3399;52.530;13.304;2022-09-02T16:54:15;23.10;45.40
6724;DHT22;3399;52.530;13.304;2022-09-02T16:56:41;23.00;45.40
6724;DHT22;3399;52.530;13.304;2022-09-02T16:59:09;22.80;45.40
6724;DHT22;3399;52.530;13.304;2022-09-02T17:01:35;22.70;45.60
6724;DHT22;3399;52.530;13.304;2022-09-02T17:04:01;22.60;46.50
6724;DHT22;3399;52.530;13.304;2022-09-02T17:06:28;22.50;46.00
6724;DHT22;3399;52.530;13.304;2022-09-02T17:08:54;22.30;46.20
6724;DHT22;3399;52.530;13.304;2022-09-02T17:11:24;22.20;46.00
6724;DHT22;3399;52.530;13.304;2022-09-02T17:16:26;21.90;46.70
6724;DHT22;3399;52.530;13.304;2022-09-02T17:18:52;21.80;46.70
6724;DHT22;3399;52.530;13.304;2022-09-02T17:21:25;21.70;46.60
6724;DHT22;3399;52.530;13.304;2022-09-02T17:23:52;21.60;46.70
6724;DHT22;3399;52.530;13.304;2022-09-02T17:26:22;21.60;46.90
6724;DHT22;3399;52.530;13.304;2022-09-02T17:28:48;21.50;47.40
6724;DHT22;3399;52.530;13.304;2022-09-02T17:31:21;21.50;47.50
6724;DHT22;3399;52.530;13.304;2022-09-02T17:33:47;21.40;47.70
6724;DHT22;3399;52.530;13.304;2022-09-02T17:36:13;21.30;47.90
6724;DHT22;3399;52.530;13.304;2022-09-02T17:38:39;21.30;48.00
6724;DHT22;3399;52.530;13.304;2022-09-02T17:41:05;21.10;48.10
6724;DHT22;3399;52.530;13.304;2022-09-02T17:43:50;21.10;48.70
6724;DHT22;3399;52.530;13.304;2022-09-02T17:46:15;20.90;49.50